Time;durP1;ratioP1;P1;durP2;ratioP2;P2;SDS_P1;SDS_P2;PMS_P1;PMS_P2;Temp;Humidity;BMP_temperature;BMP_pressure;BME280_temperature;BME280_humidity;BME280_pressure;Samples;Min_cycle;Max_cycle;Signal;HPM_P1;HPM_P2
2021/04/12 00:00:23;;;;;;;6.72;4.25;;;;;;;1.64;84.93;99830.31;5016130;28;20057;-63
2021/04/12 00:03:13;;;;;;;7.35;4.22;;;;;;;1.61;84.39;99835.97;5015217;28;20395;-63
2021/04/12 00:05:53;;;;;;;7.35;4.55;;;;;;;1.58;84.71;99831.00;5001172;28;20411;-63
2021/04/12 00:08:49;;;;;;;10.02;4.60;;;;;;;1.50;85.37;99834.50;5016318;28;20468;-63
2021/04/12 00:11:22;;;;;;;6.85;4.70;;;;;;;1.47;86.00;99834.81;5014472;28;20068;-63
2021/04/12 00:14:13;;;;;;;9.00;4.63;;;;;;;1.47;85.47;99838.31;5015336;28;20961;-63
2021/04/12 00:16:57;;;;;;;7.53;4.55;;;;;;;1.45;85.40;99839.47;4998208;28;20050;-63
2021/04/12 00:19:34;;;;;;;8.82;4.63;;;;;;;1.42;85.93;99843.28;5016028;28;20500;-63
2021/04/12 00:21:59;;;;;;;7.53;4.40;;;;;;;1.40;86.06;99844.41;5014521;28;20044;-63
2021/04/12 00:24:48;;;;;;;7.35;4.43;;;;;;;1.31;85.59;99845.44;5016231;28;20029;-63
2021/04/12 00:27:16;;;;;;;6.60;4.30;;;;;;;1.31;84.48;99853.34;4999993;28;20044;-63
2021/04/12 00:30:01;;;;;;;6.93;4.57;;;;;;;1.28;85.88;99863.25;5016067;28;20100;-63
2021/04/12 00:32:39;;;;;;;8.50;4.60;;;;;;;1.26;84.83;99859.13;5014030;28;20045;-63
2021/04/12 00:35:18;;;;;;;6.80;4.10;;;;;;;1.18;85.49;99859.16;5014296;28;20044;-63
2021/04/12 00:38:14;;;;;;;9.80;4.43;;;;;;;1.16;85.57;99869.03;5015914;28;20018;-63
2021/04/12 00:40:47;;;;;;;6.90;4.13;;;;;;;1.17;84.10;99875.97;4997547;28;20034;-63
2021/04/12 00:43:26;;;;;;;7.60;4.07;;;;;;;1.31;83.58;99885.88;5014653;28;20026;-63
2021/04/12 00:46:26;;;;;;;7.22;4.10;;;;;;;1.24;83.77;99887.50;5013758;28;20046;-63
2021/04/12 00:49:11;;;;;;;7.47;4.25;;;;;;;1.19;84.28;99887.19;5015723;28;20038;-63
2021/04/12 00:51:54;;;;;;;5.90;4.45;;;;;;;1.17;83.82;99894.44;5013988;28;20049;-63
2021/04/12 00:54:25;;;;;;;7.25;4.05;;;;;;;1.18;83.59;99886.38;5014512;28;20041;-63
2021/04/12 00:57:01;;;;;;;7.10;4.40;;;;;;;1.23;82.64;99889.34;5015195;28;20121;-63
2021/04/12 00:59:33;;;;;;;7.35;4.57;;;;;;;1.19;83.37;99881.91;5014315;28;20034;-63
2021/04/12 01:02:25;;;;;;;6.18;3.67;;;;;;;1.03;83.75;99880.91;5013753;28;20045;-63
2021/04/12 01:04:58;;;;;;;7.57;4.15;;;;;;;1.02;83.66;99874.00;5014357;28;20116;-63
2021/04/12 01:08:02;;;;;;;7.10;4.25;;;;;;;1.02;84.51;99896.91;5014679;28;20026;-63
2021/04/12 01:11:05;;;;;;;6.75;4.18;;;;;;;0.99;85.67;99902.53;5010480;28;20092;-62
2021/04/12 01:13:52;;;;;;;9.25;4.57;;;;;;;0.91;84.33;99918.38;5015296;28;20128;-63
2021/04/12 01:16:48;;;;;;;8.10;4.30;;;;;;;0.88;84.25;99922.16;5014685;28;20062;-63
2021/04/12 01:19:34;;;;;;;8.65;4.22;;;;;;;0.82;84.68;99920.16;5015076;28;20037;-63
2021/04/12 01:22:50;;;;;;;9.45;4.63;;;;;;;0.80;86.42;99935.31;5013354;28;20042;-63
2021/04/12 01:25:27;;;;;;;6.18;4.05;;;;;;;0.75;85.37;99934.97;4988923;28;20037;-63
2021/04/12 01:28:11;;;;;;;9.10;4.47;;;;;;;0.72;85.55;99940.59;5014856;28;20558;-63
2021/04/12 01:30:54;;;;;;;7.43;3.80;;;;;;;0.68;84.78;99934.81;5014469;28;20580;-63
2021/04/12 01:33:49;;;;;;;8.95;4.30;;;;;;;0.71;85.33;99941.59;5014850;28;20034;-63
2021/04/12 01:36:37;;;;;;;6.85;4.07;;;;;;;0.63;84.79;99937.94;4991062;28;20096;-63
2021/04/12 01:39:08;;;;;;;6.72;3.65;;;;;;;0.62;84.47;99935.44;5013560;28;20068;-63
2021/04/12 01:41:42;;;;;;;6.53;4.45;;;;;;;0.55;84.69;99935.28;5013965;28;20528;-63
2021/04/12 01:44:28;;;;;;;5.88;3.90;;;;;;;0.57;83.60;99937.75;5013478;28;20029;-63
2021/04/12 01:47:31;;;;;;;6.72;4.03;;;;;;;0.57;84.12;99943.84;5013792;28;20508;-63
2021/04/12 01:50:37;;;;;;;5.85;3.50;;;;;;;0.52;83.67;99935.56;4996836;28;20045;-63
2021/04/12 01:53:27;;;;;;;6.57;3.97;;;;;;;0.54;83.80;99940.69;5000265;28;20048;-63
2021/04/12 01:56:19;;;;;;;8.57;4.18;;;;;;;0.49;84.63;99946.47;5012942;28;20048;-63
2021/04/12 01:59:18;;;;;;;8.20;4.00;;;;;;;0.48;83.08;99949.28;5014380;28;20053;-63
2021/04/12 02:01:49;;;;;;;8.27;4.00;;;;;;;0.37;84.13;99948.53;5013894;28;20037;-63
2021/04/12 02:04:40;;;;;;;6.40;4.07;;;;;;;0.30;84.56;99949.34;5014452;28;20070;-63
2021/04/12 02:07:44;;;;;;;9.02;4.20;;;;;;;0.28;84.59;99948.69;5005568;28;20042;-63
2021/04/12 02:10:10;;;;;;;5.85;3.85;;;;;;;0.19;84.64;99956.53;4953136;29;20055;-63
2021/04/12 02:12:59;;;;;;;7.22;3.97;;;;;;;0.20;85.13;99958.22;4953398;29;20094;-63
2021/04/12 02:15:45;;;;;;;8.18;4.00;;;;;;;0.28;84.06;99957.44;4982774;28;20044;-63
2021/04/12 02:18:26;;;;;;;9.77;4.47;;;;;;;0.29;85.22;99958.25;4996842;28;20022;-63
2021/04/12 02:20:59;;;;;;;6.90;3.88;;;;;;;0.32;85.04;99956.09;5013546;28;20042;-63
2021/04/12 02:24:16;;;;;;;9.88;4.25;;;;;;;0.29;84.39;99960.88;5013961;28;20033;-63
2021/04/12 02:26:59;;;;;;;6.85;3.75;;;;;;;0.28;84.30;99969.78;4980158;28;20049;-63
2021/04/12 02:29:55;;;;;;;9.10;4.13;;;;;;;0.25;84.39;99973.56;5014018;28;20049;-63
2021/04/12 02:32:48;;;;;;;6.72;4.10;;;;;;;0.21;83.96;99980.94;4979693;28;20041;-63
2021/04/12 02:35:34;;;;;;;6.30;4.28;;;;;;;0.12;84.69;99987.16;5013424;28;20505;-63
2021/04/12 02:38:06;;;;;;;7.15;3.60;;;;;;;0.07;85.09;99984.16;5012594;28;20042;-63
2021/04/12 02:40:36;;;;;;;7.32;3.78;;;;;;;0.04;85.38;99988.94;5013293;28;20042;-63
2021/04/12 02:43:20;;;;;;;8.80;4.00;;;;;;;0.14;84.60;99989.66;5013582;28;20045;-63
2021/04/12 02:45:58;;;;;;;7.97;4.18;;;;;;;0.17;84.56;99982.25;5013479;28;20129;-63
2021/04/12 02:48:29;;;;;;;9.20;4.47;;;;;;;0.09;84.75;99987.47;5013606;28;20038;-63
2021/04/12 02:51:12;;;;;;;8.68;4.78;;;;;;;0.06;84.78;100003.59;5013037;28;20042;-63
2021/04/12 02:54:02;;;;;;;6.82;4.38;;;;;;;0.02;84.97;99990.88;5012168;28;20389;-63
2021/04/12 02:56:34;;;;;;;6.63;3.80;;;;;;;0.03;85.20;99989.94;4997849;28;20037;-63
2021/04/12 02:59:21;;;;;;;9.82;4.70;;;;;;;-0.02;85.53;99987.75;5013260;28;20480;-63
2021/04/12 03:02:05;;;;;;;7.10;4.22;;;;;;;-0.04;85.82;99992.34;5012821;28;20042;-63
2021/04/12 03:04:42;;;;;;;7.80;4.70;;;;;;;-0.04;86.09;99992.34;5012383;28;20040;-63
2021/04/12 03:07:37;;;;;;;8.68;4.47;;;;;;;0.02;84.60;99986.44;5012914;28;20400;-63
2021/04/12 03:10:05;;;;;;;8.82;4.18;;;;;;;0.04;85.15;99996.84;4972106;28;20036;-63
2021/04/12 03:12:58;;;;;;;7.43;4.63;;;;;;;0.04;85.69;99995.03;5011718;28;20489;-63
2021/04/12 03:15:45;;;;;;;8.20;4.32;;;;;;;0.10;84.03;100010.22;5011587;28;20045;-63
2021/04/12 03:18:32;;;;;;;7.40;4.43;;;;;;;0.21;82.40;99991.50;5013001;28;20034;-63
2021/04/12 03:21:21;;;;;;;10.05;5.20;;;;;;;0.33;82.76;100002.59;5012551;28;20052;-63
2021/04/12 03:23:51;;;;;;;8.30;5.30;;;;;;;0.30;82.25;100004.72;5012123;28;20041;-63
2021/04/12 03:26:23;;;;;;;6.97;4.40;;;;;;;0.27;82.73;100015.59;5011527;28;20040;-62
2021/04/12 03:28:54;;;;;;;7.40;4.15;;;;;;;0.38;82.26;100012.69;4979696;28;20041;-63
2021/04/12 03:31:22;;;;;;;;;;;;;;;0.26;82.67;100017.41;5011855;28;20034;-65
2021/04/12 03:33:53;;;;;;;10.77;4.75;;;;;;;0.30;81.57;100024.03;5012972;28;20308;-63
2021/04/12 03:36:50;;;;;;;9.88;4.65;;;;;;;0.32;81.89;100029.94;5012636;28;20038;-63
2021/04/12 03:39:17;;;;;;;7.53;4.35;;;;;;;0.31;82.37;100032.75;4979680;28;20045;-63
2021/04/12 03:42:04;;;;;;;8.75;4.85;;;;;;;0.28;82.76;100033.06;4995369;28;20042;-63
2021/04/12 03:44:47;;;;;;;10.05;5.57;;;;;;;0.25;82.79;100028.94;5012896;28;20461;-63
2021/04/12 03:47:37;;;;;;;8.30;5.05;;;;;;;0.29;82.30;100030.25;5011135;28;20042;-63
2021/04/12 03:50:24;;;;;;;8.77;4.47;;;;;;;0.26;82.54;100041.13;5012366;28;20533;-63
2021/04/12 03:52:59;;;;;;;9.73;4.78;;;;;;;0.27;82.34;100052.50;4996558;28;20080;-63
2021/04/12 03:55:30;;;;;;;10.85;4.72;;;;;;;0.26;82.90;100051.69;4992991;28;20050;-62
2021/04/12 03:58:26;;;;;;;11.63;4.82;;;;;;;0.20;83.52;100053.13;4993133;28;20027;-63
2021/04/12 04:00:57;;;;;;;10.15;4.88;;;;;;;0.28;83.63;100051.53;4991851;28;20042;-63
2021/04/12 04:03:40;;;;;;;9.05;4.28;;;;;;;0.10;84.22;100047.13;4993279;28;20034;-63
2021/04/12 04:06:18;;;;;;;10.48;4.60;;;;;;;0.13;83.78;100053.91;5012006;28;20102;-63
2021/04/12 04:08:49;;;;;;;7.78;4.65;;;;;;;0.19;83.88;100055.91;5016512;28;20029;-63
2021/04/12 04:11:24;;;;;;;10.80;5.03;;;;;;;0.13;83.69;100056.53;5014686;28;20080;-63
2021/04/12 04:14:15;;;;;;;6.28;4.45;;;;;;;0.22;84.88;100060.88;5016404;28;20064;-63
2021/04/12 04:16:43;;;;;;;10.07;4.72;;;;;;;0.11;85.29;100058.50;5014614;28;20065;-64
2021/04/12 04:19:16;;;;;;;8.77;4.80;;;;;;;0.32;84.40;100060.75;5016232;28;20041;-64
2021/04/12 04:22:09;;;;;;;9.43;5.30;;;;;;;0.26;84.38;100064.03;5014995;28;20088;-64
2021/04/12 04:25:12;;;;;;;7.47;4.75;;;;;;;0.40;82.92;100074.84;5015116;28;20558;-63
2021/04/12 04:28:01;;;;;;;6.97;4.55;;;;;;;0.36;83.69;100073.50;5016107;28;20076;-64
2021/04/12 04:30:48;;;;;;;8.57;5.07;;;;;;;0.30;84.93;100078.56;5000658;28;20044;-63
2021/04/12 04:33:22;;;;;;;8.23;4.68;;;;;;;0.32;84.49;100074.78;5016014;28;20038;-64
2021/04/12 04:36:01;;;;;;;9.15;5.43;;;;;;;0.29;83.51;100076.91;5015595;28;20088;-63
2021/04/12 04:38:55;;;;;;;9.38;5.07;;;;;;;0.28;84.60;100076.09;4998589;28;20038;-63
2021/04/12 04:41:42;;;;;;;10.70;5.20;;;;;;;0.35;84.30;100089.47;5015693;28;20069;-63
2021/04/12 04:44:13;;;;;;;7.35;4.85;;;;;;;0.42;83.99;100093.13;5015989;28;20030;-64
2021/04/12 04:46:41;;;;;;;;;;;;;;;0.41;83.53;100096.75;5015934;28;20084;-65
2021/04/12 04:49:39;;;;;;;8.82;5.15;;;;;;;0.45;83.61;100105.19;5015881;28;20326;-63
2021/04/12 04:52:17;;;;;;;9.52;5.50;;;;;;;0.36;84.50;100101.69;5000359;28;20026;-63
2021/04/12 04:55:16;;;;;;;9.95;6.10;;;;;;;0.42;85.15;100108.97;5015728;28;20389;-65
2021/04/12 04:57:55;;;;;;;9.75;5.40;;;;;;;0.43;83.72;100110.63;5015741;28;20045;-64
2021/04/12 05:01:09;;;;;;;8.90;5.35;;;;;;;0.41;84.79;100112.59;5014350;28;20050;-64
2021/04/12 05:03:57;;;;;;;7.95;5.88;;;;;;;0.38;85.49;100118.19;5001334;28;20045;-64
2021/04/12 05:06:59;;;;;;;11.23;5.35;;;;;;;0.31;85.52;100128.50;5015436;28;20046;-63
2021/04/12 05:09:50;;;;;;;11.63;6.80;;;;;;;0.38;85.43;100134.81;5015633;28;20029;-63
2021/04/12 05:12:40;;;;;;;12.32;5.85;;;;;;;0.46;86.06;100127.97;5013797;28;20078;-63
2021/04/12 05:15:20;;;;;;;8.93;5.80;;;;;;;0.48;84.86;100134.72;5015166;28;20088;-63
2021/04/12 05:18:06;;;;;;;9.35;6.30;;;;;;;0.43;85.44;100142.28;4998339;28;20432;-63
2021/04/12 05:20:40;;;;;;;14.15;9.02;;;;;;;0.38;85.01;100144.56;5013827;28;20406;-63
2021/04/12 05:23:23;;;;;;;9.30;6.65;;;;;;;0.54;84.78;100149.09;5014983;28;20030;-63
2021/04/12 05:26:25;;;;;;;10.95;6.95;;;;;;;0.66;84.77;100157.59;5014543;28;20400;-63
2021/04/12 05:29:09;;;;;;;9.98;6.65;;;;;;;0.69;83.07;100152.00;5013961;28;20496;-63
2021/04/12 05:32:02;;;;;;;12.05;7.63;;;;;;;0.73;83.90;100158.63;5013093;28;20042;-63
2021/04/12 05:34:46;;;;;;;11.68;8.38;;;;;;;0.82;84.34;100174.38;5013569;28;20108;-63
2021/04/12 05:37:33;;;;;;;12.75;7.38;;;;;;;0.72;85.12;100172.78;4997087;28;20452;-63
2021/04/12 05:40:08;;;;;;;14.93;7.85;;;;;;;0.78;83.30;100177.47;5015065;28;20428;-63
2021/04/12 05:43:03;;;;;;;10.48;6.65;;;;;;;0.87;83.81;100187.06;5014463;28;20049;-64
2021/04/12 05:45:38;;;;;;;12.95;6.32;;;;;;;0.90;83.90;100192.06;4992004;28;20097;-64
2021/04/12 05:48:46;;;;;;;8.15;6.15;;;;;;;0.88;83.48;100199.31;4995645;28;20428;-64
2021/04/12 05:51:24;;;;;;;11.35;5.90;;;;;;;0.86;86.19;100211.81;4953622;28;20047;-64
2021/04/12 05:54:04;;;;;;;9.10;6.07;;;;;;;0.81;87.04;100216.72;4989742;28;20100;-64
2021/04/12 05:56:54;;;;;;;7.43;5.80;;;;;;;0.83;86.92;100217.41;4994890;28;20400;-64
2021/04/12 05:59:47;;;;;;;11.45;6.43;;;;;;;0.92;85.83;100213.81;4995077;28;20030;-64
2021/04/12 06:02:26;;;;;;;10.02;6.53;;;;;;;0.96;85.96;100217.81;5009615;28;20400;-63
2021/04/12 06:05:16;;;;;;;10.18;6.35;;;;;;;0.98;84.01;100226.41;4994978;28;20031;-62
2021/04/12 06:07:59;;;;;;;10.30;6.60;;;;;;;1.16;83.99;100228.16;4994374;28;20118;-63
2021/04/12 06:10:27;;;;;;;8.70;6.60;;;;;;;1.43;81.66;100233.25;4994319;28;20049;-63
2021/04/12 06:13:25;;;;;;;9.00;6.50;;;;;;;1.62;80.00;100233.97;4994511;28;20043;-63
2021/04/12 06:16:27;;;;;;;14.60;6.70;;;;;;;2.10;78.78;100232.47;4985773;28;20050;-64
2021/04/12 06:19:02;;;;;;;7.18;4.78;;;;;;;2.47;76.46;100234.66;5007846;28;20060;-66
2021/04/12 06:21:29;;;;;;;9.60;6.07;;;;;;;2.59;75.83;100243.88;5009390;28;20038;-64
2021/04/12 06:24:05;;;;;;;9.35;6.20;;;;;;;2.63;74.84;100239.09;5009702;28;20030;-64
2021/04/12 06:26:56;;;;;;;10.50;6.85;;;;;;;2.71;74.03;100246.22;5008858;28;20030;-63
2021/04/12 06:29:36;;;;;;;6.73;4.90;;;;;;;2.77;74.37;100249.03;4993901;28;20027;-63
2021/04/12 06:32:23;;;;;;;8.73;5.15;;;;;;;3.11;73.32;100253.28;5008992;28;20277;-64
2021/04/12 06:35:04;;;;;;;8.70;4.90;;;;;;;6.82;62.92;100245.94;4994265;28;20469;-64
2021/04/12 06:37:36;;;;;;;9.93;4.25;;;;;;;5.77;62.15;100252.63;5008909;28;20109;-63
2021/04/12 06:40:26;;;;;;;7.57;3.70;;;;;;;9.02;52.38;100252.09;4993543;28;20180;-64
2021/04/12 06:43:17;;;;;;;5.60;3.00;;;;;;;8.25;53.26;100262.25;4994421;28;20481;-62
2021/04/12 06:46:22;;;;;;;4.45;2.80;;;;;;;7.96;54.37;100272.25;4992769;28;20042;-64
2021/04/12 06:49:16;;;;;;;5.00;3.05;;;;;;;7.17;55.40;100263.84;4962548;28;20039;-64
2021/04/12 06:52:06;;;;;;;6.18;4.53;;;;;;;5.59;60.07;100262.81;5008870;28;20048;-64
2021/04/12 06:55:05;;;;;;;10.40;3.33;;;;;;;6.04;60.70;100263.59;4994438;28;20102;-63
2021/04/12 06:58:08;;;;;;;7.88;3.60;;;;;;;7.59;56.58;100283.34;5008908;28;20077;-63
2021/04/12 07:01:13;;;;;;;7.20;3.95;;;;;;;7.72;54.42;100278.09;4993258;28;20539;-63
2021/04/12 07:04:16;;;;;;;6.78;3.00;;;;;;;6.02;59.93;100273.63;4994042;28;20085;-63
2021/04/12 07:06:59;;;;;;;6.60;3.40;;;;;;;6.59;58.96;100278.13;4993603;28;20086;-63
2021/04/12 07:09:31;;;;;;;10.98;3.88;;;;;;;11.38;44.25;100294.13;4993829;28;20117;-64
2021/04/12 07:12:38;;;;;;;5.55;2.78;;;;;;;12.48;41.01;100301.31;4993306;28;20113;-64
2021/04/12 07:15:10;;;;;;;5.82;3.15;;;;;;;13.01;38.63;100296.19;4993443;28;20062;-63
2021/04/12 07:18:06;;;;;;;6.97;2.95;;;;;;;13.32;38.54;100305.81;4993932;28;20096;-63
2021/04/12 07:21:13;;;;;;;5.25;2.63;;;;;;;13.44;38.30;100303.94;4993684;28;20038;-63
2021/04/12 07:23:51;;;;;;;6.55;2.83;;;;;;;13.19;37.15;100304.13;5008754;28;20481;-63
2021/04/12 07:26:45;;;;;;;4.80;2.83;;;;;;;13.72;35.95;100303.19;5008375;28;20061;-63
2021/04/12 07:29:13;;;;;;;5.43;2.50;;;;;;;11.21;41.52;100309.16;5009294;28;20026;-64
2021/04/12 07:32:02;;;;;;;5.03;2.80;;;;;;;11.65;40.98;100305.41;4993231;28;20480;-63
2021/04/12 07:34:52;;;;;;;4.93;2.03;;;;;;;9.40;46.29;100311.06;5008561;28;20085;-63
2021/04/12 07:37:57;;;;;;;4.43;2.13;;;;;;;7.76;50.03;100311.34;4993392;28;20552;-63
2021/04/12 07:40:51;;;;;;;4.28;2.40;;;;;;;8.60;49.40;100308.41;4992464;28;20048;-63
2021/04/12 07:43:31;;;;;;;6.28;2.88;;;;;;;7.38;52.81;100314.41;5012353;28;20034;-63
2021/04/12 07:46:23;;;;;;;4.47;2.13;;;;;;;6.29;55.54;100311.19;5025328;28;20484;-63
2021/04/12 07:49:07;;;;;;;4.35;2.00;;;;;;;5.83;58.16;100314.91;5015946;28;20059;-63
2021/04/12 07:51:35;;;;;;;3.47;2.10;;;;;;;5.78;59.27;100315.47;5016510;28;20173;-63
2021/04/12 07:54:09;;;;;;;4.13;2.03;;;;;;;7.86;50.21;100327.00;5016946;28;20083;-63
2021/04/12 07:56:59;;;;;;;2.70;2.00;;;;;;;7.97;51.97;100324.63;5016279;28;20065;-63
2021/04/12 08:00:02;;;;;;;4.22;1.80;;;;;;;9.46;45.34;100329.00;5016633;28;20037;-64
2021/04/12 08:02:39;;;;;;;5.75;2.30;;;;;;;7.57;51.44;100327.06;5015934;28;20050;-63
2021/04/12 08:05:29;;;;;;;3.53;2.00;;;;;;;6.38;56.82;100323.38;5014913;28;20033;-63
2021/04/12 08:08:45;;;;;;;4.47;1.98;;;;;;;6.46;57.02;100336.56;5015429;28;20022;-62
2021/04/12 08:11:19;;;;;;;4.70;2.30;;;;;;;5.50;59.27;100336.56;5011798;28;20076;-62
2021/04/12 08:14:03;;;;;;;4.28;2.10;;;;;;;5.40;59.36;100339.47;5016351;28;20041;-62
2021/04/12 08:16:37;;;;;;;5.32;2.15;;;;;;;5.65;58.62;100341.06;5015907;28;20064;-62
2021/04/12 08:19:22;;;;;;;4.55;2.30;;;;;;;5.75;58.61;100337.13;5016322;28;20081;-64
2021/04/12 08:22:25;;;;;;;5.10;1.92;;;;;;;5.82;56.23;100346.03;5016139;28;20042;-64
2021/04/12 08:25:25;;;;;;;4.78;1.90;;;;;;;5.90;55.56;100346.94;5016152;28;20030;-63
2021/04/12 08:28:15;;;;;;;3.08;2.00;;;;;;;5.69;55.77;100345.84;5015111;28;20519;-63
2021/04/12 08:31:08;;;;;;;2.65;1.80;;;;;;;5.69;57.00;100345.00;5015981;28;20046;-62
2021/04/12 08:33:57;;;;;;;6.03;2.00;;;;;;;4.98;57.69;100351.47;5016196;28;20026;-62
2021/04/12 08:36:44;;;;;;;3.92;2.50;;;;;;;5.10;57.78;100345.75;5015693;28;20449;-62
2021/04/12 08:39:34;;;;;;;3.67;2.03;;;;;;;4.98;59.00;100354.13;5014585;28;20037;-63
2021/04/12 08:42:30;;;;;;;8.13;3.50;;;;;;;5.29;57.58;100355.88;5015679;28;20129;-62
2021/04/12 08:45:05;;;;;;;5.10;2.30;;;;;;;5.43;55.93;100356.09;5014986;28;20275;-63
2021/04/12 08:47:52;;;;;;;7.43;4.10;;;;;;;6.45;54.28;100345.59;5015508;28;20072;-64
2021/04/12 08:50:42;;;;;;;3.15;1.80;;;;;;;9.13;45.15;100361.09;5015461;28;20088;-65
2021/04/12 08:53:24;;;;;;;1.92;1.70;;;;;;;8.07;49.48;100355.47;5013860;28;20038;-64
2021/04/12 08:56:30;;;;;;;2.83;2.00;;;;;;;9.34;46.26;100352.06;4998038;28;20037;-64
2021/04/12 08:59:39;;;;;;;3.70;1.70;;;;;;;10.00;41.88;100359.13;5001314;28;20033;-64
2021/04/12 09:02:42;;;;;;;4.32;2.03;;;;;;;9.64;44.33;100368.50;5014006;28;20121;-62
2021/04/12 09:05:45;;;;;;;4.13;2.00;;;;;;;8.13;47.22;100366.16;5013779;28;20026;-64
2021/04/12 09:08:35;;;;;;;3.58;1.83;;;;;;;6.50;48.04;100358.34;5015584;28;20037;-65
2021/04/12 09:11:19;;;;;;;4.15;2.15;;;;;;;7.12;51.70;100363.06;5014951;28;20038;-65
2021/04/12 09:13:45;;;;;;;5.45;1.90;;;;;;;6.67;50.77;100365.91;5015569;28;20050;-66
2021/04/12 09:16:22;;;;;;;4.63;1.98;;;;;;;5.77;55.10;100368.88;5015138;28;20136;-64
2021/04/12 09:19:06;;;;;;;7.30;2.33;;;;;;;5.67;55.09;100363.81;5015197;28;20030;-63
2021/04/12 09:21:34;;;;;;;4.43;2.30;;;;;;;8.02;51.22;100373.94;5014782;28;20034;-63
2021/04/12 09:24:18;;;;;;;3.58;2.00;;;;;;;7.92;49.30;100361.75;5015132;28;20026;-63
2021/04/12 09:27:05;;;;;;;3.63;2.15;;;;;;;8.49;46.26;100364.28;5014998;28;20374;-64
2021/04/12 09:30:06;;;;;;;3.42;1.83;;;;;;;8.26;46.70;100360.06;5015133;28;20431;-63
2021/04/12 09:32:46;;;;;;;3.28;1.80;;;;;;;8.60;44.21;100363.69;4984457;28;20133;-63
2021/04/12 09:35:24;;;;;;;4.07;2.22;;;;;;;7.20;45.81;100348.75;5014665;28;20046;-62
2021/04/12 09:38:24;;;;;;;5.88;2.30;;;;;;;9.53;43.10;100355.72;5013315;28;20026;-63
2021/04/12 09:41:09;;;;;;;5.13;1.88;;;;;;;10.54;40.58;100357.09;5012986;28;20042;-64
2021/04/12 09:43:50;;;;;;;4.85;2.67;;;;;;;10.67;41.59;100358.88;5013767;28;20026;-63
2021/04/12 09:46:46;;;;;;;2.53;1.65;;;;;;;11.35;39.98;100364.34;5013124;28;20076;-63
2021/04/12 09:49:26;;;;;;;4.32;1.75;;;;;;;10.81;38.05;100360.44;5014872;28;20072;-64
2021/04/12 09:52:10;;;;;;;4.28;2.13;;;;;;;11.00;38.62;100355.97;5014219;28;20463;-63
2021/04/12 09:55:01;;;;;;;1.95;1.55;;;;;;;9.88;42.30;100358.13;4998990;28;20029;-63
2021/04/12 09:57:55;;;;;;;4.30;1.55;;;;;;;8.84;42.16;100351.63;4997303;28;20049;-63
2021/04/12 10:00:45;;;;;;;2.90;1.80;;;;;;;9.93;42.64;100364.53;5012761;28;20397;-63
2021/04/12 10:03:29;;;;;;;3.40;1.83;;;;;;;11.92;37.23;100363.44;5014369;28;20510;-63
2021/04/12 10:06:32;;;;;;;4.07;1.80;;;;;;;10.71;39.65;100358.22;5013299;28;20038;-63
2021/04/12 10:09:00;;;;;;;1.98;1.40;;;;;;;9.77;40.36;100361.47;5014196;28;20077;-63
2021/04/12 10:11:39;;;;;;;2.47;1.60;;;;;;;8.97;41.61;100367.69;5013486;28;20519;-63
2021/04/12 10:14:23;;;;;;;2.70;1.65;;;;;;;7.47;47.25;100365.78;4997929;28;20029;-63
2021/04/12 10:17:04;;;;;;;2.17;1.70;;;;;;;7.50;49.23;100358.22;4996126;28;20042;-63
2021/04/12 10:19:42;;;;;;;2.72;1.80;;;;;;;7.28;49.13;100361.94;5013051;28;20480;-62
2021/04/12 10:22:10;;;;;;;2.95;1.73;;;;;;;7.19;49.65;100357.75;5012675;28;20030;-62
2021/04/12 10:24:52;;;;;;;2.17;1.63;;;;;;;7.30;48.96;100365.25;5012974;28;20045;-63
2021/04/12 10:27:18;;;;;;;2.85;1.83;;;;;;;6.69;49.56;100365.72;5012543;28;20045;-62
2021/04/12 10:29:48;;;;;;;2.33;1.90;;;;;;;6.52;50.62;100378.44;5012941;28;20077;-64
2021/04/12 10:32:24;;;;;;;2.63;1.80;;;;;;;5.37;59.28;100379.72;4996334;28;20045;-63
2021/04/12 10:35:12;;;;;;;7.30;1.95;;;;;;;4.96;63.15;100401.31;4996800;28;20030;-63
2021/04/12 10:37:57;;;;;;;12.13;2.25;;;;;;;3.99;68.65;100397.34;5012338;28;20374;-63
2021/04/12 10:40:31;;;;;;;3.78;2.30;;;;;;;4.06;71.28;100411.59;5013084;28;20045;-63
2021/04/12 10:43:07;;;;;;;3.58;2.55;;;;;;;4.04;73.88;100413.56;5013245;28;20026;-63
2021/04/12 10:45:38;;;;;;;3.47;2.45;;;;;;;4.16;72.66;100406.09;4995844;28;20093;-64
2021/04/12 10:48:03;;;;;;;;;;;;;;;4.07;69.70;100403.47;4980927;28;20488;-65
2021/04/12 10:50:36;;;;;;;4.53;2.80;;;;;;;4.44;69.25;100404.66;5012620;28;19917;-64
2021/04/12 10:53:23;;;;;;;5.07;2.47;;;;;;;4.32;68.68;100406.03;5012766;28;20068;-63
2021/04/12 10:56:10;;;;;;;3.70;2.80;;;;;;;4.82;69.73;100406.56;5013250;28;20074;-64
2021/04/12 10:58:44;;;;;;;3.63;2.60;;;;;;;5.82;66.24;100401.88;5013447;28;20460;-63
2021/04/12 11:01:41;;;;;;;4.72;2.83;;;;;;;5.89;64.96;100406.47;5012776;28;20046;-63
2021/04/12 11:04:28;;;;;;;3.97;2.80;;;;;;;6.16;59.59;100405.84;5001355;28;20457;-63
2021/04/12 11:07:17;;;;;;;3.90;2.60;;;;;;;5.58;63.80;100408.28;5011972;28;20037;-64
2021/04/12 11:10:02;;;;;;;2.80;2.10;;;;;;;4.60;66.94;100414.34;5012610;28;20065;-63
2021/04/12 11:12:43;;;;;;;3.75;2.97;;;;;;;4.48;69.09;100411.25;5011899;28;20056;-63
2021/04/12 11:15:29;;;;;;;4.70;3.13;;;;;;;4.08;71.12;100418.38;5012433;28;20057;-62
2021/04/12 11:18:24;;;;;;;4.38;2.70;;;;;;;3.98;67.59;100415.09;5012356;28;20056;-63
2021/04/12 11:21:08;;;;;;;3.63;2.70;;;;;;;3.70;71.26;100433.22;5007874;28;20038;-64
2021/04/12 11:23:42;;;;;;;3.60;2.70;;;;;;;3.17;71.85;100429.25;5013514;28;20419;-63
2021/04/12 11:26:18;;;;;;;4.32;2.88;;;;;;;3.14;72.78;100435.72;5011649;28;20427;-64
2021/04/12 11:28:52;;;;;;;4.60;3.15;;;;;;;3.05;73.48;100433.25;5012087;28;20388;-64
2021/04/12 11:31:33;;;;;;;6.07;3.67;;;;;;;3.03;73.39;100430.75;4995901;28;20038;-65
2021/04/12 11:34:40;;;;;;;4.75;3.40;;;;;;;3.19;72.52;100430.75;5012118;28;20545;-64
2021/04/12 11:37:20;;;;;;;3.53;3.03;;;;;;;3.98;70.74;100427.53;5004567;28;20130;-63
2021/04/12 11:39:53;;;;;;;4.82;3.55;;;;;;;4.71;67.55;100426.38;5011812;28;20030;-64
2021/04/12 11:42:20;;;;;;;4.57;3.20;;;;;;;4.61;68.20;100425.78;5011092;28;20046;-64
2021/04/12 11:44:48;;;;;;;3.90;3.00;;;;;;;5.09;65.25;100423.81;5011828;28;20491;-64
2021/04/12 11:47:18;;;;;;;4.05;3.10;;;;;;;4.73;65.41;100429.69;5011345;28;20417;-64
2021/04/12 11:50:09;;;;;;;4.47;3.60;;;;;;;4.94;66.67;100416.63;4995751;28;20026;-64
2021/04/12 11:52:56;;;;;;;5.13;3.47;;;;;;;5.37;67.38;100418.78;5012627;28;20042;-64
2021/04/12 11:55:57;;;;;;;4.28;3.33;;;;;;;5.60;62.38;100419.56;5012507;28;20034;-64
2021/04/12 11:58:37;;;;;;;4.00;3.40;;;;;;;6.26;62.00;100416.22;5011905;28;20054;-64
2021/04/12 12:01:12;;;;;;;3.13;2.42;;;;;;;7.08;59.74;100415.91;5011175;28;20058;-64
2021/04/12 12:03:59;;;;;;;4.65;2.10;;;;;;;7.70;55.94;100408.22;4995750;28;20022;-64
2021/04/12 12:06:40;;;;;;;2.72;2.00;;;;;;;7.90;54.22;100411.84;5012564;28;20046;-64
2021/04/12 12:09:15;;;;;;;2.83;2.08;;;;;;;7.63;51.62;100412.69;5011725;28;20401;-65
2021/04/12 12:12:24;;;;;;;2.88;2.00;;;;;;;7.91;56.28;100418.84;4993972;28;20057;-63
2021/04/12 12:15:09;;;;;;;2.78;2.28;;;;;;;7.46;56.24;100406.81;5004376;28;20463;-63
2021/04/12 12:17:47;;;;;;;2.45;2.05;;;;;;;7.66;51.23;100412.28;5011788;28;20085;-63
2021/04/12 12:20:22;;;;;;;2.80;2.20;;;;;;;7.44;55.62;100415.03;5012141;28;20030;-65
2021/04/12 12:22:51;;;;;;;4.63;2.65;;;;;;;7.62;53.52;100408.38;5011401;28;20384;-64
2021/04/12 12:25:41;;;;;;;2.22;1.92;;;;;;;7.31;50.24;100404.22;5012009;28;20030;-64
2021/04/12 12:28:44;;;;;;;3.17;2.10;;;;;;;7.70;50.88;100400.22;5014217;28;20076;-64
2021/04/12 12:31:32;;;;;;;4.53;2.33;;;;;;;8.21;51.71;100405.22;5015722;28;20072;-65
2021/04/12 12:34:27;;;;;;;2.78;2.10;;;;;;;7.96;50.93;100397.72;5015122;28;20030;-65
2021/04/12 12:37:01;;;;;;;3.50;2.20;;;;;;;8.82;49.29;100399.94;5015677;28;20378;-65
2021/04/12 12:39:38;;;;;;;3.85;2.45;;;;;;;7.55;48.96;100386.97;5016365;28;20070;-63
2021/04/12 12:42:11;;;;;;;4.00;2.35;;;;;;;7.06;50.82;100391.31;5014133;28;20065;-63
2021/04/12 12:44:36;;;;;;;3.15;2.20;;;;;;;7.82;52.61;100384.50;5014638;28;20061;-63
2021/04/12 12:47:07;;;;;;;2.63;2.30;;;;;;;8.06;52.01;100386.66;5015541;28;20124;-64
2021/04/12 12:49:33;;;;;;;3.70;2.70;;;;;;;8.14;53.29;100399.06;5015546;28;20407;-64
2021/04/12 12:52:03;;;;;;;3.15;2.40;;;;;;;7.89;50.34;100388.03;4981423;28;20042;-64
2021/04/12 12:54:30;;;;;;;4.30;2.53;;;;;;;7.72;52.38;100384.84;5014762;28;20029;-63